createdAt,value
2024-01-14T00:00:53.734Z,41.65
2024-01-14T00:03:21.112Z,40.60
2024-01-14T00:05:48.576Z,41.83
2024-01-14T00:08:16.137Z,38.90
2024-01-14T00:10:43.348Z,39.28
2024-01-14T00:13:10.635Z,38.22
2024-01-14T00:15:38.167Z,35.90
2024-01-14T00:18:05.836Z,36.38
2024-01-14T00:20:33.150Z,34.75
2024-01-14T00:23:00.378Z,43.72
2024-01-14T00:25:27.578Z,39.65
2024-01-14T00:27:54.791Z,38.50
2024-01-14T00:30:22.054Z,42.78
2024-01-14T00:32:49.572Z,38.95
2024-01-14T00:35:16.900Z,42.88
2024-01-14T00:37:44.196Z,43.47
2024-01-14T00:40:12.218Z,43.75
2024-01-14T00:42:39.573Z,43.03
2024-01-14T00:45:07.454Z,41.83
2024-01-14T00:47:35.754Z,43.05
2024-01-14T00:50:02.914Z,44.33
2024-01-14T00:52:30.254Z,43.25
2024-01-14T00:54:57.567Z,39.42
2024-01-14T00:57:24.876Z,38.88
2024-01-14T00:59:52.189Z,39.78
2024-01-14T01:02:19.702Z,42.25
2024-01-14T01:04:46.921Z,42.15
2024-01-14T01:07:14.234Z,40.50
2024-01-14T01:09:41.383Z,46.55
2024-01-14T01:12:08.581Z,44.75
2024-01-14T01:14:35.708Z,42.92
2024-01-14T01:17:02.979Z,42.53
2024-01-14T01:19:30.193Z,43.55
2024-01-14T01:21:57.528Z,44.25
2024-01-14T01:24:24.698Z,42.72
2024-01-14T01:26:52.852Z,44.45
2024-01-14T01:29:20.994Z,43.67
2024-01-14T01:31:51.431Z,42.47
2024-01-14T01:34:23.333Z,43.72
2024-01-14T01:36:50.799Z,42.35
2024-01-14T01:39:18.109Z,47.78
2024-01-14T01:41:45.310Z,43.15
2024-01-14T01:44:12.752Z,45.03
2024-01-14T01:46:40.284Z,45.95
2024-01-14T01:49:07.824Z,42.45
2024-01-14T01:51:35.366Z,43.53
2024-01-14T01:54:02.923Z,43.15
2024-01-14T01:56:31.186Z,44.60
2024-01-14T01:58:59.125Z,46.05
2024-01-14T02:01:26.567Z,42.85
2024-01-14T02:03:55.513Z,44.70
2024-01-14T02:06:23.707Z,44.60
2024-01-14T02:08:51.117Z,42.50
2024-01-14T02:11:18.471Z,45.10
2024-01-14T02:13:45.704Z,43.72
2024-01-14T02:16:13.500Z,44.30
2024-01-14T02:18:41.045Z,45.15
2024-01-14T02:21:11.860Z,41.50
2024-01-14T02:23:43.115Z,44.53
2024-01-14T02:26:10.473Z,39.60
2024-01-14T02:28:38.869Z,41.10
2024-01-14T02:31:07.467Z,42.42
2024-01-14T02:33:34.787Z,44.88
2024-01-14T02:36:02.255Z,44.33
2024-01-14T02:38:29.774Z,41.22
2024-01-14T02:40:56.983Z,39.60
2024-01-14T02:43:24.132Z,39.15
2024-01-14T02:45:51.376Z,40.53
2024-01-14T02:48:18.746Z,41.20
2024-01-14T02:50:46.178Z,41.97
2024-01-14T02:53:14.301Z,40.70
2024-01-14T02:55:41.614Z,38.25
2024-01-14T02:58:08.858Z,38.97
2024-01-14T03:00:36.159Z,38.88
2024-01-14T03:03:03.471Z,40.67
2024-01-14T03:05:30.858Z,39.67
2024-01-14T03:07:58.069Z,36.05
2024-01-14T03:10:25.314Z,33.53
2024-01-14T03:12:52.448Z,37.53
2024-01-14T03:15:19.783Z,37.40
2024-01-14T03:17:47.029Z,37.65
2024-01-14T03:20:14.403Z,36.67
2024-01-14T03:22:41.642Z,37.33
2024-01-14T03:25:09.314Z,34.97
2024-01-14T03:27:36.559Z,33.95
2024-01-14T03:30:04.297Z,32.05
2024-01-14T03:32:31.584Z,32.72
2024-01-14T03:34:58.970Z,30.52
2024-01-14T03:37:26.143Z,30.13
2024-01-14T03:39:54.426Z,29.92
2024-01-14T03:42:21.601Z,33.83
2024-01-14T03:44:48.971Z,35.28
2024-01-14T03:47:16.175Z,34.80
2024-01-14T03:49:43.631Z,36.30
2024-01-14T03:52:10.934Z,36.22
2024-01-14T03:54:38.226Z,36.17
2024-01-14T03:57:05.796Z,36.70
2024-01-14T03:59:33.174Z,36.63
2024-01-14T04:02:00.314Z,37.95
2024-01-14T04:04:27.714Z,38.83
2024-01-14T04:06:55.117Z,39.13
2024-01-14T04:09:22.540Z,38.63
2024-01-14T04:11:49.818Z,37.38
2024-01-14T04:14:17.179Z,39.63
2024-01-14T04:16:44.302Z,38.45
2024-01-14T04:19:11.545Z,38.63
2024-01-14T04:21:38.952Z,37.42
2024-01-14T04:24:06.553Z,38.78
2024-01-14T04:26:33.665Z,36.15
2024-01-14T04:29:01.079Z,38.75
2024-01-14T04:31:28.496Z,35.50
2024-01-14T04:33:58.123Z,34.13
2024-01-14T04:36:25.525Z,32.05
2024-01-14T04:38:52.758Z,30.38
2024-01-14T04:41:20.014Z,31.85
2024-01-14T04:43:47.536Z,30.20
2024-01-14T04:46:14.718Z,28.55
2024-01-14T04:48:42.370Z,31.17
2024-01-14T04:51:11.166Z,30.67
2024-01-14T04:53:38.457Z,30.35
2024-01-14T04:56:09.270Z,33.65
2024-01-14T04:58:36.651Z,34.38
2024-01-14T05:01:03.841Z,33.40
2024-01-14T05:03:31.399Z,33.25
2024-01-14T05:05:59.039Z,32.10
2024-01-14T05:08:26.424Z,32.63
2024-01-14T05:10:53.653Z,33.20
2024-01-14T05:13:20.928Z,31.73
2024-01-14T05:15:48.148Z,34.17
2024-01-14T05:18:15.510Z,36.92
2024-01-14T05:20:43.002Z,38.45
2024-01-14T05:23:10.274Z,36.20
2024-01-14T05:25:37.761Z,32.88
2024-01-14T05:28:05.273Z,31.17
2024-01-14T05:30:33.355Z,31.27
2024-01-14T05:33:00.806Z,30.50
2024-01-14T05:35:28.164Z,28.75
2024-01-14T05:37:55.464Z,29.23
2024-01-14T05:40:22.929Z,30.38
2024-01-14T05:42:50.284Z,31.85
2024-01-14T05:45:17.453Z,31.25
2024-01-14T05:47:44.889Z,30.30
2024-01-14T05:50:12.166Z,27.80
2024-01-14T05:52:39.465Z,35.90
2024-01-14T05:55:06.897Z,36.17
2024-01-14T05:57:34.257Z,34.92
2024-01-14T06:00:01.404Z,32.08
2024-01-14T06:02:34.098Z,31.63
2024-01-14T06:05:01.496Z,30.77
2024-01-14T06:07:28.743Z,34.15
2024-01-14T06:09:56.256Z,34.05
2024-01-14T06:12:23.568Z,35.58
2024-01-14T06:14:50.906Z,33.00
2024-01-14T06:17:18.057Z,30.65
2024-01-14T06:19:45.358Z,31.45
2024-01-14T06:22:13.936Z,32.50
2024-01-14T06:24:41.182Z,32.25
2024-01-14T06:27:08.407Z,30.23
2024-01-14T06:29:35.657Z,30.27
2024-01-14T06:32:02.896Z,37.08
2024-01-14T06:34:30.361Z,36.70
2024-01-14T06:36:57.623Z,33.15
2024-01-14T06:39:24.760Z,36.25
2024-01-14T06:41:53.236Z,34.35
2024-01-14T06:44:20.405Z,32.35
2024-01-14T06:46:47.770Z,32.78
2024-01-14T06:49:15.225Z,33.92
2024-01-14T06:51:44.106Z,34.60
2024-01-14T06:54:11.749Z,36.90
2024-01-14T06:56:42.084Z,37.60
2024-01-14T06:59:13.395Z,36.03
2024-01-14T07:01:40.678Z,37.40
2024-01-14T07:04:07.994Z,34.45
2024-01-14T07:06:35.318Z,31.20
2024-01-14T07:09:02.476Z,29.25
2024-01-14T07:11:29.772Z,27.73
2024-01-14T07:13:56.950Z,27.08
2024-01-14T07:16:24.214Z,26.75
2024-01-14T07:18:51.489Z,27.25
2024-01-14T07:21:22.421Z,28.58
2024-01-14T07:23:50.081Z,26.90
2024-01-14T07:26:23.470Z,30.60
2024-01-14T07:28:54.563Z,33.17
2024-01-14T07:31:23.103Z,34.67
2024-01-14T07:33:53.042Z,33.13
2024-01-14T07:36:21.265Z,32.15
2024-01-14T07:38:49.116Z,30.67
2024-01-14T07:41:17.102Z,29.80
2024-01-14T07:43:44.978Z,31.73
2024-01-14T07:46:12.836Z,32.50
2024-01-14T07:48:40.632Z,31.33
2024-01-14T07:51:08.123Z,31.13
2024-01-14T07:53:35.735Z,30.17
2024-01-14T07:56:04.811Z,31.50
2024-01-14T07:58:32.230Z,34.92
2024-01-14T08:01:02.379Z,39.53
2024-01-14T08:03:32.359Z,39.50
2024-01-14T08:06:01.652Z,37.40
2024-01-14T08:08:29.771Z,36.65
2024-01-14T08:10:57.069Z,33.17
2024-01-14T08:13:24.868Z,30.95
2024-01-14T08:15:58.153Z,30.90
2024-01-14T08:18:31.676Z,37.70
2024-01-14T08:21:00.045Z,32.30
2024-01-14T08:23:29.790Z,34.45
2024-01-14T08:25:58.143Z,33.28
2024-01-14T08:28:25.625Z,33.15
2024-01-14T08:30:53.048Z,37.78
2024-01-14T08:33:20.544Z,37.80
2024-01-14T08:35:47.671Z,38.50
2024-01-14T08:38:14.893Z,35.58
2024-01-14T08:40:42.137Z,35.88
2024-01-14T08:43:09.797Z,36.65
2024-01-14T08:45:37.039Z,37.65
2024-01-14T08:48:04.927Z,34.75
2024-01-14T08:50:32.541Z,37.40
2024-01-14T08:52:59.800Z,37.35
2024-01-14T08:55:27.005Z,37.60
2024-01-14T08:57:54.243Z,35.47
2024-01-14T09:00:21.827Z,36.53
2024-01-14T09:02:49.199Z,37.38
2024-01-14T09:05:17.587Z,38.80
2024-01-14T09:07:44.860Z,39.45
2024-01-14T09:10:12.548Z,38.80
2024-01-14T09:12:39.826Z,39.35
2024-01-14T09:15:07.774Z,37.80
2024-01-14T09:17:36.387Z,37.03
2024-01-14T09:20:06.314Z,36.10
2024-01-14T09:22:33.862Z,34.25
2024-01-14T09:25:01.058Z,32.97
2024-01-14T09:27:31.801Z,33.20
2024-01-14T09:30:00.242Z,30.02
2024-01-14T09:32:27.808Z,29.52
2024-01-14T09:34:55.888Z,30.73
2024-01-14T09:37:23.039Z,29.45
2024-01-14T09:39:50.368Z,29.27
2024-01-14T09:42:22.041Z,27.17
2024-01-14T09:44:52.426Z,25.23
2024-01-14T09:47:19.705Z,28.55
2024-01-14T09:49:47.182Z,26.33
2024-01-14T09:52:15.327Z,25.35
2024-01-14T09:54:42.732Z,23.63
2024-01-14T09:57:15.538Z,24.25
2024-01-14T09:59:44.728Z,26.67
2024-01-14T10:02:13.107Z,27.80
2024-01-14T10:04:41.625Z,29.17
2024-01-14T10:07:09.777Z,28.27
2024-01-14T10:09:39.981Z,25.92
2024-01-14T10:12:10.287Z,25.90
2024-01-14T10:14:38.857Z,26.50
2024-01-14T10:17:06.352Z,28.27
2024-01-14T10:19:34.002Z,30.63
2024-01-14T10:22:14.959Z,29.77
2024-01-14T10:24:50.125Z,29.20
2024-01-14T10:27:33.800Z,27.23
2024-01-14T10:30:10.334Z,27.92
2024-01-14T10:33:15.395Z,30.33
2024-01-14T10:35:26.620Z,31.40
2024-01-14T10:37:54.545Z,28.55
2024-01-14T10:40:23.696Z,26.65
2024-01-14T10:42:51.444Z,27.25
2024-01-14T10:45:18.948Z,29.13
2024-01-14T10:47:49.158Z,29.35
2024-01-14T10:50:19.636Z,31.75
2024-01-14T10:52:55.832Z,29.60
2024-01-14T10:55:41.971Z,30.90
2024-01-14T10:58:15.299Z,32.90
2024-01-14T11:00:48.006Z,34.17
2024-01-14T11:03:15.914Z,33.67
2024-01-14T11:05:43.422Z,29.02
2024-01-14T11:08:13.184Z,34.22
2024-01-14T11:10:41.109Z,31.00
2024-01-14T11:13:22.754Z,31.25
2024-01-14T11:16:00.569Z,31.98
2024-01-14T11:18:35.065Z,31.52
2024-01-14T11:21:26.573Z,27.27
2024-01-14T11:24:02.535Z,26.35
2024-01-14T11:26:29.983Z,30.10
2024-01-14T11:29:00.511Z,29.13
2024-01-14T11:31:49.137Z,28.52
2024-01-14T11:34:19.602Z,29.13
2024-01-14T11:36:50.486Z,28.90
2024-01-14T11:39:18.033Z,29.23
2024-01-14T11:41:45.951Z,29.83
2024-01-14T11:44:13.420Z,29.75
2024-01-14T11:46:47.387Z,30.00
2024-01-14T11:49:24.780Z,30.38
2024-01-14T11:51:57.636Z,27.35
2024-01-14T11:54:25.650Z,27.50
2024-01-14T11:56:53.853Z,24.70
2024-01-14T11:59:34.349Z,22.33
2024-01-14T12:02:11.967Z,21.85
2024-01-14T12:04:39.191Z,22.88
2024-01-14T12:07:06.558Z,24.02
2024-01-14T12:09:35.158Z,26.05
2024-01-14T12:12:05.796Z,24.45
2024-01-14T12:14:38.634Z,22.88
2024-01-14T12:17:09.124Z,25.90
2024-01-14T12:19:36.317Z,24.48
2024-01-14T12:22:04.141Z,25.25
2024-01-14T12:24:31.411Z,24.23
2024-01-14T12:27:00.638Z,23.58
2024-01-14T12:29:32.045Z,22.80
2024-01-14T12:31:59.871Z,22.05
2024-01-14T12:34:27.275Z,23.30
2024-01-14T12:36:55.486Z,23.38
2024-01-14T12:39:24.893Z,25.45
2024-01-14T12:41:54.948Z,26.75
2024-01-14T12:44:26.823Z,25.65
2024-01-14T12:46:59.434Z,25.17
2024-01-14T12:49:27.302Z,27.38
2024-01-14T12:51:57.599Z,28.60
2024-01-14T12:54:26.914Z,24.92
2024-01-14T12:57:01.531Z,25.90
2024-01-14T12:59:30.441Z,26.52
2024-01-14T13:01:57.713Z,25.92
2024-01-14T13:04:27.592Z,26.83
2024-01-14T13:06:58.722Z,25.33
2024-01-14T13:09:28.728Z,25.67
2024-01-14T13:11:56.533Z,25.20
2024-01-14T13:14:23.978Z,26.00
2024-01-14T13:16:54.462Z,27.38
2024-01-14T13:19:22.647Z,26.20
2024-01-14T13:21:50.258Z,28.98
2024-01-14T13:24:17.747Z,28.48
2024-01-14T13:26:45.166Z,27.30
2024-01-14T13:29:12.634Z,27.27
2024-01-14T13:31:41.644Z,28.38
2024-01-14T13:34:10.328Z,29.00
2024-01-14T13:36:37.853Z,36.42
2024-01-14T13:39:06.252Z,30.38
2024-01-14T13:41:34.313Z,27.88
2024-01-14T13:46:32.606Z,25.90
2024-01-14T13:48:59.890Z,26.63
2024-01-14T13:51:27.450Z,26.88
2024-01-14T13:54:03.433Z,26.38
2024-01-14T13:56:42.934Z,25.90
2024-01-14T13:59:12.008Z,28.90
2024-01-14T14:01:40.300Z,28.38
2024-01-14T14:04:09.959Z,28.10
2024-01-14T14:06:39.140Z,28.02
2024-01-14T14:09:09.003Z,27.52
2024-01-14T14:11:37.095Z,28.60
2024-01-14T14:14:05.214Z,27.48
2024-01-14T14:16:40.058Z,26.30
2024-01-14T14:19:12.569Z,25.75
2024-01-14T14:21:53.794Z,24.70
2024-01-14T14:24:28.164Z,29.65
2024-01-14T14:26:55.702Z,30.15
2024-01-14T14:29:25.518Z,27.50
2024-01-14T14:31:54.977Z,28.08
2024-01-14T14:34:22.978Z,26.40
2024-01-14T14:36:50.768Z,27.00
2024-01-14T14:39:20.186Z,27.33
2024-01-14T14:41:48.699Z,27.25
2024-01-14T14:44:16.623Z,27.30
2024-01-14T14:46:44.173Z,27.25
2024-01-14T14:49:12.234Z,26.17
2024-01-14T14:51:42.216Z,26.20
2024-01-14T14:54:11.511Z,25.70
2024-01-14T14:56:40.330Z,25.77
2024-01-14T14:59:08.038Z,24.08
2024-01-14T15:01:42.554Z,24.05
2024-01-14T15:04:15.286Z,25.10
2024-01-14T15:06:45.437Z,23.35
2024-01-14T15:09:15.990Z,22.05
2024-01-14T15:11:43.942Z,24.40
2024-01-14T15:14:12.027Z,26.98
2024-01-14T15:16:42.063Z,24.15
2024-01-14T15:19:09.613Z,24.92
2024-01-14T15:21:37.888Z,24.33
2024-01-14T15:24:05.358Z,25.05
2024-01-14T15:26:34.530Z,24.85
2024-01-14T15:29:01.996Z,24.38
2024-01-14T15:31:30.740Z,25.60
2024-01-14T15:33:59.269Z,23.70
2024-01-14T15:36:29.856Z,22.55
2024-01-14T15:38:59.420Z,22.15
2024-01-14T15:41:27.928Z,24.25
2024-01-14T15:43:55.471Z,22.98
2024-01-14T15:46:22.715Z,26.00
2024-01-14T15:48:51.820Z,23.60
2024-01-14T15:51:19.348Z,24.20
2024-01-14T15:53:46.715Z,24.02
2024-01-14T15:56:14.827Z,22.60
2024-01-14T15:58:42.928Z,24.70
2024-01-14T16:01:13.311Z,26.27
2024-01-14T16:03:44.613Z,25.23
2024-01-14T16:06:14.242Z,26.60
2024-01-14T16:08:43.663Z,27.15
2024-01-14T16:11:11.033Z,26.90
2024-01-14T16:13:38.457Z,24.25
2024-01-14T16:16:07.516Z,24.92
2024-01-14T16:18:36.109Z,24.85
2024-01-14T16:21:07.870Z,28.38
2024-01-14T16:23:38.926Z,28.38
2024-01-14T16:26:08.239Z,28.65
2024-01-14T16:28:35.545Z,27.20
2024-01-14T16:31:11.145Z,26.05
2024-01-14T16:33:44.199Z,28.00
2024-01-14T16:36:14.754Z,26.45
2024-01-14T16:38:42.396Z,26.88
2024-01-14T16:41:10.038Z,28.73
2024-01-14T16:43:37.810Z,27.58
2024-01-14T16:46:06.160Z,29.08
2024-01-14T16:48:34.522Z,26.95
2024-01-14T16:51:09.775Z,24.80
2024-01-14T16:53:41.173Z,28.02
2024-01-14T16:56:12.553Z,25.40
2024-01-14T16:58:40.753Z,24.42
2024-01-14T17:01:15.467Z,24.67
2024-01-14T17:03:47.531Z,25.25
2024-01-14T17:06:16.903Z,26.58
2024-01-14T17:08:47.430Z,25.77
2024-01-14T17:11:16.383Z,27.27
2024-01-14T17:13:44.104Z,24.25
2024-01-14T17:16:14.453Z,25.95
2024-01-14T17:18:42.551Z,27.02
2024-01-14T17:21:10.088Z,26.60
2024-01-14T17:23:37.646Z,28.33
2024-01-14T17:26:08.293Z,31.67
2024-01-14T17:28:41.101Z,26.95
2024-01-14T17:31:11.800Z,27.67
2024-01-14T17:33:40.569Z,27.15
2024-01-14T17:36:11.725Z,26.60
2024-01-14T17:38:39.970Z,32.33
2024-01-14T17:41:08.923Z,27.38
2024-01-14T17:43:36.704Z,28.52
2024-01-14T17:46:08.255Z,29.88
2024-01-14T17:48:39.644Z,29.58
2024-01-14T17:51:09.330Z,28.48
2024-01-14T17:53:38.179Z,29.58
2024-01-14T17:56:05.934Z,29.58
2024-01-14T17:58:33.204Z,29.88
2024-01-14T18:01:03.423Z,28.13
2024-01-14T18:03:31.123Z,29.05
2024-01-14T18:05:59.655Z,28.40
2024-01-14T18:08:26.897Z,28.63
2024-01-14T18:10:54.074Z,29.83
2024-01-14T18:13:21.927Z,26.95
2024-01-14T18:15:50.201Z,28.20
2024-01-14T18:18:18.355Z,27.52
2024-01-14T18:20:45.829Z,26.67
2024-01-14T18:23:14.427Z,31.08
2024-01-14T18:25:44.135Z,31.02
2024-01-14T18:28:14.269Z,29.58
2024-01-14T18:30:42.212Z,29.10
2024-01-14T18:33:12.738Z,28.33
2024-01-14T18:35:43.976Z,28.52
2024-01-14T18:38:13.386Z,29.95
2024-01-14T18:40:41.073Z,33.58
2024-01-14T18:43:10.070Z,31.08
2024-01-14T18:45:38.434Z,27.95
2024-01-14T18:48:07.118Z,27.35
2024-01-14T18:50:35.703Z,28.33
2024-01-14T18:53:05.245Z,26.70
2024-01-14T18:55:32.627Z,26.98
2024-01-14T18:57:59.889Z,27.67
2024-01-14T19:00:27.125Z,28.17
2024-01-14T19:02:54.420Z,29.13
2024-01-14T19:05:21.754Z,27.92
2024-01-14T19:07:49.305Z,31.90
2024-01-14T19:10:16.573Z,28.30
2024-01-14T19:12:44.119Z,29.98
2024-01-14T19:15:11.492Z,27.52
2024-01-14T19:17:38.758Z,26.17
2024-01-14T19:20:06.900Z,27.38
2024-01-14T19:22:35.535Z,29.75
2024-01-14T19:25:04.144Z,29.85
2024-01-14T19:27:32.415Z,31.88
2024-01-14T19:29:59.654Z,27.35
2024-01-14T19:32:28.621Z,28.48
2024-01-14T19:34:56.218Z,26.02
2024-01-14T19:37:23.549Z,30.45
2024-01-14T19:39:52.247Z,27.92
2024-01-14T19:42:20.103Z,35.13
2024-01-14T19:44:47.263Z,31.42
2024-01-14T19:47:15.693Z,31.38
2024-01-14T19:49:42.982Z,28.85
2024-01-14T19:52:10.352Z,27.25
2024-01-14T19:54:37.879Z,34.30
2024-01-14T19:57:06.063Z,32.35
2024-01-14T19:59:33.476Z,32.30
2024-01-14T20:02:01.384Z,34.03
2024-01-14T20:04:28.732Z,34.63
2024-01-14T20:06:56.362Z,34.95
2024-01-14T20:09:25.229Z,36.03
2024-01-14T20:11:55.729Z,35.47
2024-01-14T20:14:23.522Z,35.25
2024-01-14T20:16:52.514Z,36.78
2024-01-14T20:19:21.111Z,36.42
2024-01-14T20:21:49.726Z,37.10
2024-01-14T20:24:17.499Z,33.30
2024-01-14T20:26:46.842Z,32.58
2024-01-14T20:29:14.216Z,35.53
2024-01-14T20:31:41.541Z,37.50
2024-01-14T20:34:08.974Z,37.83
2024-01-14T20:36:36.316Z,37.05
2024-01-14T20:39:04.021Z,37.55
2024-01-14T20:41:31.352Z,34.35
2024-01-14T20:43:58.680Z,34.20
2024-01-14T20:46:25.898Z,36.67
2024-01-14T20:48:53.906Z,32.10
2024-01-14T20:51:21.523Z,29.35
2024-01-14T20:53:48.827Z,27.95
2024-01-14T20:56:16.370Z,30.15
2024-01-14T20:58:43.636Z,33.20
2024-01-14T21:01:10.735Z,30.52
2024-01-14T21:03:39.335Z,29.10
2024-01-14T21:06:06.979Z,26.90
2024-01-14T21:08:34.532Z,29.40
2024-01-14T21:11:01.729Z,30.17
2024-01-14T21:13:29.010Z,29.67
2024-01-14T21:15:56.322Z,30.50
2024-01-14T21:18:25.409Z,33.13
2024-01-14T21:20:53.254Z,29.48
2024-01-14T21:23:20.894Z,31.38
2024-01-14T21:25:48.864Z,33.33
2024-01-14T21:28:16.210Z,30.92
2024-01-14T21:30:43.598Z,32.67
2024-01-14T21:33:11.074Z,43.92
2024-01-14T21:35:38.550Z,36.38
2024-01-14T21:38:05.738Z,40.28
2024-01-14T21:40:33.080Z,36.90
2024-01-14T21:43:00.292Z,40.50
2024-01-14T21:45:28.864Z,40.65
2024-01-14T21:47:56.296Z,39.38
2024-01-14T21:50:24.145Z,38.92
2024-01-14T21:52:51.596Z,40.08
2024-01-14T21:55:19.065Z,39.75
2024-01-14T21:57:46.922Z,40.10
2024-01-14T22:00:14.621Z,35.67
2024-01-14T22:02:41.865Z,40.10
2024-01-14T22:05:09.309Z,35.17
2024-01-14T22:07:36.473Z,32.55
2024-01-14T22:10:04.538Z,39.40
2024-01-14T22:12:31.865Z,40.83
2024-01-14T22:14:59.395Z,44.25
2024-01-14T22:17:26.572Z,46.13
2024-01-14T22:19:54.002Z,45.00
2024-01-14T22:22:21.244Z,47.72
2024-01-14T22:24:48.605Z,45.05
2024-01-14T22:27:18.742Z,45.22
2024-01-14T22:29:46.015Z,44.55
2024-01-14T22:32:13.136Z,40.47
2024-01-14T22:34:40.637Z,42.30
2024-01-14T22:37:07.958Z,37.90
2024-01-14T22:39:35.243Z,42.13
2024-01-14T22:42:02.523Z,43.08
2024-01-14T22:44:29.803Z,47.13
2024-01-14T22:46:56.988Z,45.95
2024-01-14T22:49:24.335Z,44.42
2024-01-14T22:51:51.716Z,40.45
2024-01-14T22:54:19.133Z,40.90
2024-01-14T22:56:46.675Z,42.85
2024-01-14T22:59:13.893Z,40.72
2024-01-14T23:01:41.319Z,35.30
2024-01-14T23:04:09.111Z,33.78
2024-01-14T23:06:36.559Z,40.50
2024-01-14T23:09:04.103Z,42.67
2024-01-14T23:11:31.585Z,43.95
2024-01-14T23:13:58.797Z,40.83
2024-01-14T23:16:25.968Z,42.20
2024-01-14T23:18:53.370Z,45.72
2024-01-14T23:21:20.725Z,44.83
2024-01-14T23:23:48.806Z,46.13
2024-01-14T23:26:16.060Z,46.78
2024-01-14T23:28:43.367Z,43.72
2024-01-14T23:31:10.606Z,48.20
2024-01-14T23:33:38.375Z,50.33
2024-01-14T23:36:06.038Z,45.58
2024-01-14T23:38:33.361Z,46.00
2024-01-14T23:41:00.691Z,44.67
2024-01-14T23:43:28.298Z,43.97
2024-01-14T23:45:56.110Z,42.40
2024-01-14T23:48:23.933Z,43.38
2024-01-14T23:50:51.272Z,48.03
2024-01-14T23:53:18.610Z,42.17
2024-01-14T23:56:11.892Z,47.25
2024-01-14T23:58:39.262Z,49.60
